CheckWX is a tool to help pilots better visualize weather data.  It is not intended as a substitute for an official pre-flight weather briefing.

06:20:11 UTC

KOPN METAR
Thomaston-Upson County Airport
Thomaston, Georgia, USA
Current

25 mins ago

KOPN 230555Z AUTO 00000KT 10SM CLR 12/08 A3016 RMK AO2
Observed
Apr-23 @ 05:55 UTC
Visibility
10 SM
Flight Rules
VFR
Cloud Levels
  • Clear skies
Temperature
12°C / 54°F
Dewpoint
C / 46°F
Humidity
77%
Altimeter
30.16" Hg
Pressure
1021.32 hPa
Previous

45 mins ago

KOPN 230535Z AUTO 00000KT 10SM CLR 13/09 A3016 RMK AO2
Observed
Apr-23 @ 05:35 UTC
Visibility
10 SM
Flight Rules
VFR
Cloud Levels
  • Clear skies
Temperature
13°C / 55°F
Dewpoint
C / 48°F
Humidity
77%
Altimeter
30.16" Hg
Pressure
1021.32 hPa
Previous

1 hour ago

KOPN 230515Z AUTO 00000KT 10SM CLR 14/10 A3016 RMK AO2
Observed
Apr-23 @ 05:15 UTC
Visibility
10 SM
Flight Rules
VFR
Cloud Levels
  • Clear skies
Temperature
14°C / 57°F
Dewpoint
10°C / 50°F
Humidity
77%
Altimeter
30.16" Hg
Pressure
1021.32 hPa